sensor_id;sensor_type;location;lat;lon;timestamp;pressure;altitude;pressure_sealevel;temperature;humidity
7930;BME280;4010;42.698;23.124;2023-04-09T00:00:15;49753.25;;;-140.64;100.00
7930;BME280;4010;42.698;23.124;2023-04-09T00:02:42;50528.03;;;-140.64;100.00
7930;BME280;4010;42.698;23.124;2023-04-09T00:05:08;51561.34;;;-140.64;100.00
7930;BME280;4010;42.698;23.124;2023-04-09T00:07:36;52078.13;;;-140.64;100.00
7930;BME280;4010;42.698;23.124;2023-04-09T00:10:04;51819.75;;;-140.64;100.00
7930;BME280;4010;42.698;23.124;2023-04-09T00:12:31;51561.34;;;-140.64;100.00
7930;BME280;4010;42.698;23.124;2023-04-09T00:14:57;50786.34;;;-140.64;100.00
7930;BME280;4010;42.698;23.124;2023-04-09T00:17:24;51044.66;;;-140.64;100.00
7930;BME280;4010;42.698;23.124;2023-04-09T00:19:51;51044.66;;;-140.64;100.00
7930;BME280;4010;42.698;23.124;2023-04-09T00:22:17;52336.56;;;-140.64;100.00
7930;BME280;4010;42.698;23.124;2023-04-09T00:24:45;52336.56;;;-140.64;100.00
7930;BME280;4010;42.698;23.124;2023-04-09T00:27:12;51561.34;;;-140.64;100.00
7930;BME280;4010;42.698;23.124;2023-04-09T00:29:39;51561.34;;;-140.64;100.00
7930;BME280;4010;42.698;23.124;2023-04-09T00:32:06;51044.66;;;-140.64;100.00
7930;BME280;4010;42.698;23.124;2023-04-09T00:34:32;51044.66;;;-140.64;100.00
7930;BME280;4010;42.698;23.124;2023-04-09T00:36:59;52595.00;;;-140.64;100.00
7930;BME280;4010;42.698;23.124;2023-04-09T00:39:26;52336.56;;;-140.64;100.00
7930;BME280;4010;42.698;23.124;2023-04-09T00:41:56;53628.97;;;-140.64;100.00
7930;BME280;4010;42.698;23.124;2023-04-09T00:44:23;54921.84;;;-140.64;100.00
7930;BME280;4010;42.698;23.124;2023-04-09T00:46:51;56473.97;;;-140.64;100.00
7930;BME280;4010;42.698;23.124;2023-04-09T00:49:18;56473.97;;;-140.64;100.00
7930;BME280;4010;42.698;23.124;2023-04-09T00:51:45;54921.84;;;-140.64;100.00
7930;BME280;4010;42.698;23.124;2023-04-09T00:54:13;56991.50;;;-140.64;100.00
7930;BME280;4010;42.698;23.124;2023-04-09T00:56:41;56991.50;;;-140.64;100.00
7930;BME280;4010;42.698;23.124;2023-04-09T00:59:09;56732.72;;;-140.64;100.00
7930;BME280;4010;42.698;23.124;2023-04-09T01:01:36;56473.97;;;-140.64;100.00
7930;BME280;4010;42.698;23.124;2023-04-09T01:04:02;53887.50;;;-140.64;100.00
7930;BME280;4010;42.698;23.124;2023-04-09T01:06:37;52078.13;;;-140.64;100.00
7930;BME280;4010;42.698;23.124;2023-04-09T01:09:13;53111.94;;;-140.64;100.00
7930;BME280;4010;42.698;23.124;2023-04-09T01:11:50;52078.13;;;-140.64;100.00
7930;BME280;4010;42.698;23.124;2023-04-09T01:14:30;51561.34;;;-140.64;100.00
7930;BME280;4010;42.698;23.124;2023-04-09T01:17:02;52336.56;;;-140.64;100.00
7930;BME280;4010;42.698;23.124;2023-04-09T01:19:40;51044.66;;;-140.64;100.00
7930;BME280;4010;42.698;23.124;2023-04-09T01:22:17;54663.25;;;-140.64;100.00
7930;BME280;4010;42.698;23.124;2023-04-09T01:24:56;56473.97;;;-140.64;100.00
7930;BME280;4010;42.698;23.124;2023-04-09T01:27:32;54663.25;;;-140.64;100.00
7930;BME280;4010;42.698;23.124;2023-04-09T01:30:03;55697.81;;;-140.64;100.00
7930;BME280;4010;42.698;23.124;2023-04-09T01:32:31;54921.84;;;-140.64;100.00
7930;BME280;4010;42.698;23.124;2023-04-09T01:35:01;54146.06;;;-140.64;100.00
7930;BME280;4010;42.698;23.124;2023-04-09T01:37:29;53111.94;;;-140.64;100.00
7930;BME280;4010;42.698;23.124;2023-04-09T01:39:56;54921.84;;;-140.64;100.00
7930;BME280;4010;42.698;23.124;2023-04-09T01:42:23;55180.50;;;-140.64;100.00
7930;BME280;4010;42.698;23.124;2023-04-09T01:44:51;54404.63;;;-140.64;100.00
7930;BME280;4010;42.698;23.124;2023-04-09T01:47:20;52853.47;;;-140.64;100.00
7930;BME280;4010;42.698;23.124;2023-04-09T01:49:47;58803.50;;;-140.64;100.00
7930;BME280;4010;42.698;23.124;2023-04-09T01:52:14;62948.81;;;-140.64;100.00
7930;BME280;4010;42.698;23.124;2023-04-09T01:54:41;64504.59;;;-140.64;100.00
7930;BME280;4010;42.698;23.124;2023-04-09T01:57:08;62689.56;;;-140.64;100.00
7930;BME280;4010;42.698;23.124;2023-04-09T01:59:34;62948.81;;;-140.64;100.00
7930;BME280;4010;42.698;23.124;2023-04-09T02:02:05;63208.06;;;-140.64;100.00
7930;BME280;4010;42.698;23.124;2023-04-09T02:04:39;61134.59;;;-140.64;100.00
7930;BME280;4010;42.698;23.124;2023-04-09T02:07:10;60098.38;;;-140.64;100.00
7930;BME280;4010;42.698;23.124;2023-04-09T02:09:40;59580.34;;;-140.64;100.00
7930;BME280;4010;42.698;23.124;2023-04-09T02:12:11;59062.44;;;-140.64;100.00
7930;BME280;4010;42.698;23.124;2023-04-09T02:14:40;59580.34;;;-140.64;100.00
7930;BME280;4010;42.698;23.124;2023-04-09T02:17:06;61912.00;;;-140.64;100.00
7930;BME280;4010;42.698;23.124;2023-04-09T02:19:42;62171.19;;;-140.64;100.00
7930;BME280;4010;42.698;23.124;2023-04-09T02:22:09;62689.56;;;-140.64;100.00
7930;BME280;4010;42.698;23.124;2023-04-09T02:24:37;60616.44;;;-140.64;100.00
7930;BME280;4010;42.698;23.124;2023-04-09T02:27:05;61912.00;;;-140.64;100.00
7930;BME280;4010;42.698;23.124;2023-04-09T02:29:32;58285.69;;;-140.64;100.00
7930;BME280;4010;42.698;23.124;2023-04-09T02:31:58;59839.34;;;-140.64;100.00
7930;BME280;4010;42.698;23.124;2023-04-09T02:34:26;60098.38;;;-140.64;100.00
7930;BME280;4010;42.698;23.124;2023-04-09T02:36:54;56215.25;;;-140.64;100.00
7930;BME280;4010;42.698;23.124;2023-04-09T02:39:20;61393.72;;;-140.64;100.00
7930;BME280;4010;42.698;23.124;2023-04-09T02:41:47;60875.53;;;-140.64;100.00
7930;BME280;4010;42.698;23.124;2023-04-09T02:44:14;60616.44;;;-140.64;100.00
7930;BME280;4010;42.698;23.124;2023-04-09T02:46:41;59839.34;;;-140.64;100.00
7930;BME280;4010;42.698;23.124;2023-04-09T02:49:07;60616.44;;;-140.64;100.00
7930;BME280;4010;42.698;23.124;2023-04-09T02:51:34;59580.34;;;-140.64;100.00
7930;BME280;4010;42.698;23.124;2023-04-09T02:54:03;57509.13;;;-140.64;100.00
7930;BME280;4010;42.698;23.124;2023-04-09T02:56:29;60357.41;;;-140.64;100.00
7930;BME280;4010;42.698;23.124;2023-04-09T02:58:56;61912.00;;;-140.64;100.00
7930;BME280;4010;42.698;23.124;2023-04-09T03:01:23;61134.59;;;-140.64;100.00
7930;BME280;4010;42.698;23.124;2023-04-09T03:03:49;60875.53;;;-140.64;100.00
7930;BME280;4010;42.698;23.124;2023-04-09T03:06:16;61912.00;;;-140.64;100.00
7930;BME280;4010;42.698;23.124;2023-04-09T03:08:43;61912.00;;;-140.64;100.00
7930;BME280;4010;42.698;23.124;2023-04-09T03:11:11;61912.00;;;-140.64;100.00
7930;BME280;4010;42.698;23.124;2023-04-09T03:13:38;60875.53;;;-140.64;100.00
7930;BME280;4010;42.698;23.124;2023-04-09T03:16:05;59580.34;;;-140.64;100.00
7930;BME280;4010;42.698;23.124;2023-04-09T03:18:32;58285.69;;;-140.64;100.00
7930;BME280;4010;42.698;23.124;2023-04-09T03:20:59;58285.69;;;-140.64;100.00
7930;BME280;4010;42.698;23.124;2023-04-09T03:23:29;59580.34;;;-140.64;100.00
7930;BME280;4010;42.698;23.124;2023-04-09T03:26:00;58544.59;;;-140.64;100.00
7930;BME280;4010;42.698;23.124;2023-04-09T03:28:28;58285.69;;;-140.64;100.00
7930;BME280;4010;42.698;23.124;2023-04-09T03:30:55;58544.59;;;-140.64;100.00
7930;BME280;4010;42.698;23.124;2023-04-09T03:33:22;58544.59;;;-140.64;100.00
7930;BME280;4010;42.698;23.124;2023-04-09T03:35:49;59580.34;;;-140.64;100.00
7930;BME280;4010;42.698;23.124;2023-04-09T03:38:16;58285.69;;;-140.64;100.00
7930;BME280;4010;42.698;23.124;2023-04-09T03:40:43;58285.69;;;-140.64;100.00
7930;BME280;4010;42.698;23.124;2023-04-09T03:43:10;61393.72;;;-140.64;100.00
7930;BME280;4010;42.698;23.124;2023-04-09T03:45:38;59062.44;;;-140.64;100.00
7930;BME280;4010;42.698;23.124;2023-04-09T03:48:05;59321.38;;;-140.64;100.00
7930;BME280;4010;42.698;23.124;2023-04-09T03:50:37;57250.31;;;-140.64;100.00
7930;BME280;4010;42.698;23.124;2023-04-09T03:53:03;56215.25;;;-140.64;100.00
7930;BME280;4010;42.698;23.124;2023-04-09T03:55:30;55439.16;;;-140.64;100.00
7930;BME280;4010;42.698;23.124;2023-04-09T03:57:56;55439.16;;;-140.64;100.00
7930;BME280;4010;42.698;23.124;2023-04-09T04:00:23;54921.84;;;-140.64;100.00
7930;BME280;4010;42.698;23.124;2023-04-09T04:02:51;52853.47;;;-140.64;100.00
7930;BME280;4010;42.698;23.124;2023-04-09T04:05:18;51819.75;;;-140.64;100.00
7930;BME280;4010;42.698;23.124;2023-04-09T04:07:45;52336.56;;;-140.64;100.00
7930;BME280;4010;42.698;23.124;2023-04-09T04:10:11;52078.13;;;-140.64;100.00
7930;BME280;4010;42.698;23.124;2023-04-09T04:12:38;52078.13;;;-140.64;100.00
7930;BME280;4010;42.698;23.124;2023-04-09T04:15:06;51561.34;;;-140.64;100.00
7930;BME280;4010;42.698;23.124;2023-04-09T04:17:32;51819.75;;;-140.64;100.00
7930;BME280;4010;42.698;23.124;2023-04-09T04:20:01;53111.94;;;-140.64;100.00
7930;BME280;4010;42.698;23.124;2023-04-09T04:22:28;52078.13;;;-140.64;100.00
7930;BME280;4010;42.698;23.124;2023-04-09T04:24:55;51561.34;;;-140.64;100.00
7930;BME280;4010;42.698;23.124;2023-04-09T04:27:21;50786.34;;;-140.64;100.00
7930;BME280;4010;42.698;23.124;2023-04-09T04:29:48;51561.34;;;-140.64;100.00
7930;BME280;4010;42.698;23.124;2023-04-09T04:32:15;49495.03;;;-140.64;100.00
7930;BME280;4010;42.698;23.124;2023-04-09T04:34:41;50011.50;;;-140.64;100.00
7930;BME280;4010;42.698;23.124;2023-04-09T04:37:12;49753.25;;;-140.64;100.00
7930;BME280;4010;42.698;23.124;2023-04-09T04:39:39;52078.13;;;-140.64;100.00
7930;BME280;4010;42.698;23.124;2023-04-09T04:42:05;50269.75;;;-140.64;100.00
7930;BME280;4010;42.698;23.124;2023-04-09T04:44:32;51303.00;;;-140.64;100.00
7930;BME280;4010;42.698;23.124;2023-04-09T04:46:59;52853.47;;;-140.64;100.00
7930;BME280;4010;42.698;23.124;2023-04-09T04:49:25;55956.53;;;-140.64;100.00
7930;BME280;4010;42.698;23.124;2023-04-09T04:51:52;55956.53;;;-140.64;100.00
7930;BME280;4010;42.698;23.124;2023-04-09T04:54:20;56991.50;;;-140.64;100.00
7930;BME280;4010;42.698;23.124;2023-04-09T04:56:47;61393.72;;;-140.64;100.00
7930;BME280;4010;42.698;23.124;2023-04-09T04:59:14;65282.75;;;-140.64;100.00
7930;BME280;4010;42.698;23.124;2023-04-09T05:01:40;66320.59;;;-140.64;100.00
7930;BME280;4010;42.698;23.124;2023-04-09T05:04:07;70215.25;;;-140.64;100.00
7930;BME280;4010;42.698;23.124;2023-04-09T05:06:34;75154.88;;;-140.64;100.00
7930;BME280;4010;42.698;23.124;2023-04-09T05:09:00;78799.16;;;-140.64;100.00
7930;BME280;4010;42.698;23.124;2023-04-09T05:11:29;78799.16;;;-140.64;100.00
7930;BME280;4010;42.698;23.124;2023-04-09T05:13:55;72034.28;;;-140.64;100.00
7930;BME280;4010;42.698;23.124;2023-04-09T05:16:22;70475.06;;;-140.64;100.00
7930;BME280;4010;42.698;23.124;2023-04-09T05:18:49;73074.16;;;-140.64;100.00
7930;BME280;4010;42.698;23.124;2023-04-09T05:21:15;76716.25;;;-140.64;100.00
7930;BME280;4010;42.698;23.124;2023-04-09T05:23:42;79320.09;;;-140.64;100.00
7930;BME280;4010;42.698;23.124;2023-04-09T05:26:09;79580.59;;;-140.64;100.00
7930;BME280;4010;42.698;23.124;2023-04-09T05:28:37;81143.94;;;-140.64;100.00
7930;BME280;4010;42.698;23.124;2023-04-09T05:31:04;82968.78;;;-140.64;100.00
7930;BME280;4010;42.698;23.124;2023-04-09T05:33:35;88187.94;;;-140.64;100.00
7930;BME280;4010;42.698;23.124;2023-04-09T05:36:02;98911.84;;;-140.64;100.00
7930;BME280;4010;42.698;23.124;2023-04-09T05:38:29;105992.06;;;-140.64;100.00
7930;BME280;4010;42.698;23.124;2023-04-09T05:40:56;117293.56;;;-140.64;100.00
7930;BME280;4010;42.698;23.124;2023-04-09T05:43:23;118349.16;;;-140.64;100.00
7930;BME280;4010;42.698;23.124;2023-04-09T05:45:51;118349.16;;;-140.64;100.00
7930;BME280;4010;42.698;23.124;2023-04-09T05:48:17;118349.16;;;-140.64;100.00
7930;BME280;4010;42.698;23.124;2023-04-09T05:50:48;118349.16;;;-140.64;100.00
7930;BME280;4010;42.698;23.124;2023-04-09T05:53:15;118349.16;;;-140.64;100.00
7930;BME280;4010;42.698;23.124;2023-04-09T05:55:41;118349.16;;;-140.64;100.00
7930;BME280;4010;42.698;23.124;2023-04-09T05:58:08;118349.16;;;-140.64;100.00
7930;BME280;4010;42.698;23.124;2023-04-09T06:00:35;118349.16;;;-140.64;100.00
7930;BME280;4010;42.698;23.124;2023-04-09T06:03:03;118349.16;;;-140.64;100.00
7930;BME280;4010;42.698;23.124;2023-04-09T06:05:30;118349.16;;;-140.64;100.00
7930;BME280;4010;42.698;23.124;2023-04-09T06:07:56;118349.16;;;-140.64;100.00
7930;BME280;4010;42.698;23.124;2023-04-09T06:10:23;118349.16;;;-140.64;100.00
7930;BME280;4010;42.698;23.124;2023-04-09T06:12:51;118349.16;;;-140.64;100.00
7930;BME280;4010;42.698;23.124;2023-04-09T06:15:18;118349.16;;;-140.64;100.00
7930;BME280;4010;42.698;23.124;2023-04-09T06:17:45;118349.16;;;-140.64;100.00
7930;BME280;4010;42.698;23.124;2023-04-09T06:20:13;118349.16;;;-140.64;100.00
7930;BME280;4010;42.698;23.124;2023-04-09T06:22:40;118349.16;;;-140.64;100.00
7930;BME280;4010;42.698;23.124;2023-04-09T06:25:07;118349.16;;;-140.64;100.00
7930;BME280;4010;42.698;23.124;2023-04-09T06:27:33;118349.16;;;-140.64;100.00
7930;BME280;4010;42.698;23.124;2023-04-09T06:30:00;118349.16;;;-140.64;100.00
7930;BME280;4010;42.698;23.124;2023-04-09T06:32:27;118349.16;;;-140.64;100.00
7930;BME280;4010;42.698;23.124;2023-04-09T06:34:54;118349.16;;;-140.64;100.00
7930;BME280;4010;42.698;23.124;2023-04-09T06:37:22;118349.16;;;-140.64;100.00
7930;BME280;4010;42.698;23.124;2023-04-09T06:39:48;118349.16;;;-140.64;100.00
7930;BME280;4010;42.698;23.124;2023-04-09T06:42:15;118349.16;;;-140.64;100.00
7930;BME280;4010;42.698;23.124;2023-04-09T06:44:42;118349.16;;;-140.64;100.00
7930;BME280;4010;42.698;23.124;2023-04-09T06:47:09;118349.16;;;-140.64;100.00
7930;BME280;4010;42.698;23.124;2023-04-09T06:49:35;118349.16;;;-140.64;100.00
7930;BME280;4010;42.698;23.124;2023-04-09T06:52:02;118349.16;;;-140.64;100.00
7930;BME280;4010;42.698;23.124;2023-04-09T06:54:30;118349.16;;;-140.64;100.00
7930;BME280;4010;42.698;23.124;2023-04-09T06:56:57;118349.16;;;-140.64;100.00
7930;BME280;4010;42.698;23.124;2023-04-09T06:59:23;118349.16;;;-140.64;100.00
7930;BME280;4010;42.698;23.124;2023-04-09T07:01:50;118349.16;;;-140.64;100.00
7930;BME280;4010;42.698;23.124;2023-04-09T07:04:17;118349.16;;;-140.64;100.00
7930;BME280;4010;42.698;23.124;2023-04-09T07:06:44;118349.16;;;-140.64;100.00
7930;BME280;4010;42.698;23.124;2023-04-09T07:09:11;118349.16;;;-140.64;100.00
7930;BME280;4010;42.698;23.124;2023-04-09T07:11:39;118349.16;;;-140.64;100.00
7930;BME280;4010;42.698;23.124;2023-04-09T07:14:05;118349.16;;;-140.64;100.00
7930;BME280;4010;42.698;23.124;2023-04-09T07:16:32;118349.16;;;-140.64;100.00
7930;BME280;4010;42.698;23.124;2023-04-09T07:18:59;118349.16;;;-140.64;100.00
7930;BME280;4010;42.698;23.124;2023-04-09T07:21:25;118349.16;;;-140.64;100.00
7930;BME280;4010;42.698;23.124;2023-04-09T07:23:52;118349.16;;;-140.64;100.00
7930;BME280;4010;42.698;23.124;2023-04-09T07:26:20;118349.16;;;-140.64;100.00
7930;BME280;4010;42.698;23.124;2023-04-09T07:28:48;118349.16;;;-140.64;100.00
7930;BME280;4010;42.698;23.124;2023-04-09T07:31:15;118349.16;;;-140.64;100.00
7930;BME280;4010;42.698;23.124;2023-04-09T07:33:42;118349.16;;;-140.64;100.00
7930;BME280;4010;42.698;23.124;2023-04-09T07:36:09;118349.16;;;-140.64;100.00
7930;BME280;4010;42.698;23.124;2023-04-09T07:38:36;118349.16;;;-140.64;100.00
7930;BME280;4010;42.698;23.124;2023-04-09T07:41:02;118349.16;;;-140.64;100.00
7930;BME280;4010;42.698;23.124;2023-04-09T07:43:29;118349.16;;;-140.64;100.00
7930;BME280;4010;42.698;23.124;2023-04-09T07:45:57;118349.16;;;-140.64;100.00
7930;BME280;4010;42.698;23.124;2023-04-09T07:48:24;118349.16;;;-140.64;100.00
7930;BME280;4010;42.698;23.124;2023-04-09T07:50:52;118349.16;;;-140.64;100.00
7930;BME280;4010;42.698;23.124;2023-04-09T07:53:19;118349.16;;;-140.64;100.00
7930;BME280;4010;42.698;23.124;2023-04-09T07:55:46;118349.16;;;-140.64;100.00
7930;BME280;4010;42.698;23.124;2023-04-09T07:58:12;118349.16;;;-140.64;100.00
7930;BME280;4010;42.698;23.124;2023-04-09T08:00:40;118349.16;;;-140.64;100.00
7930;BME280;4010;42.698;23.124;2023-04-09T08:03:08;118349.16;;;-140.64;100.00
7930;BME280;4010;42.698;23.124;2023-04-09T08:05:34;118349.16;;;-140.64;100.00
7930;BME280;4010;42.698;23.124;2023-04-09T08:08:02;118349.16;;;-140.64;100.00
7930;BME280;4010;42.698;23.124;2023-04-09T08:10:29;118349.16;;;-140.64;100.00
7930;BME280;4010;42.698;23.124;2023-04-09T08:12:55;118349.16;;;-140.64;100.00
7930;BME280;4010;42.698;23.124;2023-04-09T08:15:22;118349.16;;;-140.64;100.00
7930;BME280;4010;42.698;23.124;2023-04-09T08:17:49;118349.16;;;-140.64;100.00
7930;BME280;4010;42.698;23.124;2023-04-09T08:20:17;118349.16;;;-140.64;97.11
7930;BME280;4010;42.698;23.124;2023-04-09T08:22:43;118349.16;;;-140.64;97.71
7930;BME280;4010;42.698;23.124;2023-04-09T08:25:11;118349.16;;;-140.64;98.80
7930;BME280;4010;42.698;23.124;2023-04-09T08:27:37;118349.16;;;-140.64;97.67
7930;BME280;4010;42.698;23.124;2023-04-09T08:30:05;118349.16;;;-140.64;95.23
7930;BME280;4010;42.698;23.124;2023-04-09T08:32:32;118349.16;;;-140.64;95.43
7930;BME280;4010;42.698;23.124;2023-04-09T08:34:59;118349.16;;;-140.64;95.53
7930;BME280;4010;42.698;23.124;2023-04-09T08:37:27;118349.16;;;-140.64;96.73
7930;BME280;4010;42.698;23.124;2023-04-09T08:39:54;118349.16;;;-140.64;98.63
7930;BME280;4010;42.698;23.124;2023-04-09T08:42:21;118349.16;;;-140.64;96.73
7930;BME280;4010;42.698;23.124;2023-04-09T08:44:49;118349.16;;;-140.64;95.49
7930;BME280;4010;42.698;23.124;2023-04-09T08:47:17;118349.16;;;-140.64;96.61
7930;BME280;4010;42.698;23.124;2023-04-09T08:49:44;118349.16;;;-140.64;96.27
7930;BME280;4010;42.698;23.124;2023-04-09T08:52:12;118349.16;;;-140.64;97.14
7930;BME280;4010;42.698;23.124;2023-04-09T08:54:42;118349.16;;;-140.64;92.60
7930;BME280;4010;42.698;23.124;2023-04-09T08:57:08;118349.16;;;-140.64;94.13
7930;BME280;4010;42.698;23.124;2023-04-09T08:59:35;118349.16;;;-140.64;93.31
7930;BME280;4010;42.698;23.124;2023-04-09T09:02:08;118349.16;;;-140.64;92.31
7930;BME280;4010;42.698;23.124;2023-04-09T09:04:45;118349.16;;;-140.64;92.56
7930;BME280;4010;42.698;23.124;2023-04-09T09:07:12;118349.16;;;-140.64;93.59
7930;BME280;4010;42.698;23.124;2023-04-09T09:09:54;118349.16;;;-140.64;94.21
7930;BME280;4010;42.698;23.124;2023-04-09T09:12:32;118349.16;;;-140.64;93.85
7930;BME280;4010;42.698;23.124;2023-04-09T09:14:58;118349.16;;;-140.64;95.88
7930;BME280;4010;42.698;23.124;2023-04-09T09:17:25;118349.16;;;-140.64;96.38
7930;BME280;4010;42.698;23.124;2023-04-09T09:19:52;118349.16;;;-140.64;94.11
7930;BME280;4010;42.698;23.124;2023-04-09T09:22:19;118349.16;;;-140.64;96.78
7930;BME280;4010;42.698;23.124;2023-04-09T09:24:45;118349.16;;;-140.64;95.97
7930;BME280;4010;42.698;23.124;2023-04-09T09:27:30;118349.16;;;-140.64;93.55
7930;BME280;4010;42.698;23.124;2023-04-09T09:29:58;118349.16;;;-140.64;91.88
7930;BME280;4010;42.698;23.124;2023-04-09T09:32:24;118349.16;;;-140.64;92.17
7930;BME280;4010;42.698;23.124;2023-04-09T09:34:57;118349.16;;;-140.64;92.23
7930;BME280;4010;42.698;23.124;2023-04-09T09:37:25;118349.16;;;-140.64;93.75
7930;BME280;4010;42.698;23.124;2023-04-09T09:39:52;118349.16;;;-140.64;94.19
7930;BME280;4010;42.698;23.124;2023-04-09T09:59:15;118349.16;;;-140.64;92.77
7930;BME280;4010;42.698;23.124;2023-04-09T10:01:45;118349.16;;;-140.64;92.54
7930;BME280;4010;42.698;23.124;2023-04-09T10:04:13;118349.16;;;-140.64;92.65
7930;BME280;4010;42.698;23.124;2023-04-09T10:06:42;118349.16;;;-140.64;93.79
7930;BME280;4010;42.698;23.124;2023-04-09T10:09:10;118349.16;;;-140.64;91.95
7930;BME280;4010;42.698;23.124;2023-04-09T10:11:38;118349.16;;;-140.64;89.91
7930;BME280;4010;42.698;23.124;2023-04-09T10:14:08;118349.16;;;-140.64;90.40
7930;BME280;4010;42.698;23.124;2023-04-09T10:16:35;118349.16;;;-140.64;89.76
7930;BME280;4010;42.698;23.124;2023-04-09T10:19:02;118349.16;;;-140.64;90.22
7930;BME280;4010;42.698;23.124;2023-04-09T10:21:36;118349.16;;;-140.64;91.75
7930;BME280;4010;42.698;23.124;2023-04-09T10:24:04;118349.16;;;-140.64;90.23
7930;BME280;4010;42.698;23.124;2023-04-09T10:26:33;118349.16;;;-140.64;89.87
7930;BME280;4010;42.698;23.124;2023-04-09T10:29:08;118349.16;;;-140.64;87.49
7930;BME280;4010;42.698;23.124;2023-04-09T10:31:51;118349.16;;;-140.64;89.42
7930;BME280;4010;42.698;23.124;2023-04-09T10:34:21;118349.16;;;-140.64;89.64
7930;BME280;4010;42.698;23.124;2023-04-09T10:36:51;118349.16;;;-140.64;92.06
7930;BME280;4010;42.698;23.124;2023-04-09T10:39:19;118349.16;;;-140.64;94.02
7930;BME280;4010;42.698;23.124;2023-04-09T10:41:47;118349.16;;;-140.64;92.65
7930;BME280;4010;42.698;23.124;2023-04-09T10:44:23;118349.16;;;-140.64;92.03
7930;BME280;4010;42.698;23.124;2023-04-09T10:46:52;118349.16;;;-140.64;93.37
7930;BME280;4010;42.698;23.124;2023-04-09T10:49:20;118349.16;;;-140.64;95.14
7930;BME280;4010;42.698;23.124;2023-04-09T10:51:48;118349.16;;;-140.64;99.12
7930;BME280;4010;42.698;23.124;2023-04-09T10:54:44;118349.16;;;-140.64;100.00
7930;BME280;4010;42.698;23.124;2023-04-09T10:57:16;118349.16;;;-140.64;100.00
7930;BME280;4010;42.698;23.124;2023-04-09T10:59:45;118349.16;;;-140.64;100.00
7930;BME280;4010;42.698;23.124;2023-04-09T11:05:18;118349.16;;;-140.64;100.00
7930;BME280;4010;42.698;23.124;2023-04-09T11:07:48;118349.16;;;-140.64;100.00
7930;BME280;4010;42.698;23.124;2023-04-09T11:10:18;118349.16;;;-140.64;100.00
7930;BME280;4010;42.698;23.124;2023-04-09T11:12:45;118349.16;;;-140.64;100.00
7930;BME280;4010;42.698;23.124;2023-04-09T11:15:19;118349.16;;;-140.64;100.00
7930;BME280;4010;42.698;23.124;2023-04-09T11:17:47;118349.16;;;-140.64;100.00
7930;BME280;4010;42.698;23.124;2023-04-09T11:20:15;118349.16;;;-140.64;100.00
7930;BME280;4010;42.698;23.124;2023-04-09T11:22:42;118349.16;;;-140.64;100.00
7930;BME280;4010;42.698;23.124;2023-04-09T11:25:09;118349.16;;;-140.64;100.00
7930;BME280;4010;42.698;23.124;2023-04-09T11:27:36;118349.16;;;-140.64;100.00
7930;BME280;4010;42.698;23.124;2023-04-09T11:30:05;118349.16;;;-140.64;100.00
7930;BME280;4010;42.698;23.124;2023-04-09T11:32:33;118349.16;;;-140.64;100.00
7930;BME280;4010;42.698;23.124;2023-04-09T11:35:00;118349.16;;;-140.64;100.00
7930;BME280;4010;42.698;23.124;2023-04-09T11:37:27;118349.16;;;-140.64;100.00
7930;BME280;4010;42.698;23.124;2023-04-09T11:39:54;118349.16;;;-140.64;100.00
7930;BME280;4010;42.698;23.124;2023-04-09T11:42:22;118349.16;;;-140.64;100.00
7930;BME280;4010;42.698;23.124;2023-04-09T11:44:49;118349.16;;;-140.64;100.00
7930;BME280;4010;42.698;23.124;2023-04-09T11:47:18;118349.16;;;-140.64;100.00
7930;BME280;4010;42.698;23.124;2023-04-09T11:49:47;118349.16;;;-140.64;100.00
7930;BME280;4010;42.698;23.124;2023-04-09T11:52:14;118349.16;;;-140.64;100.00
7930;BME280;4010;42.698;23.124;2023-04-09T11:54:41;118349.16;;;-140.64;100.00
7930;BME280;4010;42.698;23.124;2023-04-09T11:57:08;118349.16;;;-140.64;100.00
7930;BME280;4010;42.698;23.124;2023-04-09T11:59:37;118349.16;;;-140.64;100.00
7930;BME280;4010;42.698;23.124;2023-04-09T12:02:05;117797.66;;;-140.64;100.00
7930;BME280;4010;42.698;23.124;2023-04-09T12:04:32;118349.16;;;-140.64;100.00
7930;BME280;4010;42.698;23.124;2023-04-09T12:07:00;118349.16;;;-140.64;100.00
7930;BME280;4010;42.698;23.124;2023-04-09T12:09:27;118349.16;;;-140.64;100.00
7930;BME280;4010;42.698;23.124;2023-04-09T12:11:54;118349.16;;;-140.64;100.00
7930;BME280;4010;42.698;23.124;2023-04-09T12:14:21;118349.16;;;-140.64;100.00
7930;BME280;4010;42.698;23.124;2023-04-09T12:16:50;118349.16;;;-140.64;100.00
7930;BME280;4010;42.698;23.124;2023-04-09T12:19:17;118349.16;;;-140.64;100.00
7930;BME280;4010;42.698;23.124;2023-04-09T12:21:45;118349.16;;;-140.64;100.00
7930;BME280;4010;42.698;23.124;2023-04-09T12:24:14;118349.16;;;-140.64;100.00
7930;BME280;4010;42.698;23.124;2023-04-09T12:26:41;118349.16;;;-140.64;100.00
7930;BME280;4010;42.698;23.124;2023-04-09T12:29:08;118349.16;;;-140.64;100.00
7930;BME280;4010;42.698;23.124;2023-04-09T12:31:35;118349.16;;;-140.64;100.00
7930;BME280;4010;42.698;23.124;2023-04-09T12:34:01;118349.16;;;-140.64;100.00
7930;BME280;4010;42.698;23.124;2023-04-09T12:36:28;118349.16;;;-140.64;100.00
7930;BME280;4010;42.698;23.124;2023-04-09T12:38:55;118349.16;;;-140.64;100.00
7930;BME280;4010;42.698;23.124;2023-04-09T12:41:23;118349.16;;;-140.64;100.00
7930;BME280;4010;42.698;23.124;2023-04-09T12:43:49;118349.16;;;-140.64;100.00
7930;BME280;4010;42.698;23.124;2023-04-09T12:46:16;118349.16;;;-140.64;100.00
7930;BME280;4010;42.698;23.124;2023-04-09T12:48:43;118349.16;;;-140.64;100.00
7930;BME280;4010;42.698;23.124;2023-04-09T12:51:10;118349.16;;;-140.64;100.00
7930;BME280;4010;42.698;23.124;2023-04-09T12:53:37;118349.16;;;-140.64;100.00
7930;BME280;4010;42.698;23.124;2023-04-09T12:56:04;118349.16;;;-140.64;100.00
7930;BME280;4010;42.698;23.124;2023-04-09T12:58:32;118349.16;;;-140.64;100.00